sensor_id;sensor_type;location;lat;lon;timestamp;P1;durP1;ratioP1;P2;durP2;ratioP2
69991;SDS011;57332;51.320;-0.580;2023-09-19T00:00:47;4.13;;;0.90;;
69991;SDS011;57332;51.320;-0.580;2023-09-19T00:03:16;2.78;;;0.90;;
69991;SDS011;57332;51.320;-0.580;2023-09-19T00:05:43;5.90;;;0.70;;
69991;SDS011;57332;51.320;-0.580;2023-09-19T00:08:14;2.25;;;0.70;;
69991;SDS011;57332;51.320;-0.580;2023-09-19T00:10:42;2.50;;;0.85;;
69991;SDS011;57332;51.320;-0.580;2023-09-19T00:13:09;4.85;;;0.82;;
69991;SDS011;57332;51.320;-0.580;2023-09-19T00:15:41;2.55;;;0.73;;
69991;SDS011;57332;51.320;-0.580;2023-09-19T00:18:09;2.83;;;0.47;;
69991;SDS011;57332;51.320;-0.580;2023-09-19T00:20:36;9.70;;;1.00;;
69991;SDS011;57332;51.320;-0.580;2023-09-19T00:23:04;3.85;;;0.60;;
69991;SDS011;57332;51.320;-0.580;2023-09-19T00:25:31;1.48;;;0.63;;
69991;SDS011;57332;51.320;-0.580;2023-09-19T00:28:02;4.40;;;0.70;;
69991;SDS011;57332;51.320;-0.580;2023-09-19T00:30:29;3.67;;;0.68;;
69991;SDS011;57332;51.320;-0.580;2023-09-19T00:32:56;3.25;;;0.70;;
69991;SDS011;57332;51.320;-0.580;2023-09-19T00:35:23;7.13;;;0.68;;
69991;SDS011;57332;51.320;-0.580;2023-09-19T00:37:51;7.65;;;0.80;;
69991;SDS011;57332;51.320;-0.580;2023-09-19T00:40:18;3.13;;;0.90;;
69991;SDS011;57332;51.320;-0.580;2023-09-19T00:42:46;5.25;;;1.35;;
69991;SDS011;57332;51.320;-0.580;2023-09-19T00:45:14;5.10;;;0.90;;
69991;SDS011;57332;51.320;-0.580;2023-09-19T00:47:45;6.13;;;0.63;;
69991;SDS011;57332;51.320;-0.580;2023-09-19T00:50:13;1.30;;;0.50;;
69991;SDS011;57332;51.320;-0.580;2023-09-19T00:52:42;2.67;;;0.88;;
69991;SDS011;57332;51.320;-0.580;2023-09-19T00:55:10;3.35;;;0.90;;
69991;SDS011;57332;51.320;-0.580;2023-09-19T00:57:37;3.97;;;0.90;;
69991;SDS011;57332;51.320;-0.580;2023-09-19T01:00:05;2.88;;;0.50;;
69991;SDS011;57332;51.320;-0.580;2023-09-19T01:02:34;6.45;;;1.20;;
69991;SDS011;57332;51.320;-0.580;2023-09-19T01:05:02;4.05;;;0.85;;
69991;SDS011;57332;51.320;-0.580;2023-09-19T01:07:31;1.95;;;0.52;;
69991;SDS011;57332;51.320;-0.580;2023-09-19T01:10:00;6.07;;;0.85;;
69991;SDS011;57332;51.320;-0.580;2023-09-19T01:12:30;4.15;;;0.80;;
69991;SDS011;57332;51.320;-0.580;2023-09-19T01:15:02;7.22;;;0.98;;
69991;SDS011;57332;51.320;-0.580;2023-09-19T01:17:35;7.28;;;1.00;;
69991;SDS011;57332;51.320;-0.580;2023-09-19T01:30:46;5.43;;;0.70;;
69991;SDS011;57332;51.320;-0.580;2023-09-19T01:33:16;3.85;;;0.90;;
69991;SDS011;57332;51.320;-0.580;2023-09-19T01:35:43;4.57;;;0.82;;
69991;SDS011;57332;51.320;-0.580;2023-09-19T01:38:10;6.40;;;1.00;;
69991;SDS011;57332;51.320;-0.580;2023-09-19T01:40:41;3.70;;;0.93;;
69991;SDS011;57332;51.320;-0.580;2023-09-19T01:45:50;5.32;;;0.98;;
69991;SDS011;57332;51.320;-0.580;2023-09-19T01:51:00;3.78;;;0.60;;
69991;SDS011;57332;51.320;-0.580;2023-09-19T01:53:28;5.60;;;0.90;;
69991;SDS011;57332;51.320;-0.580;2023-09-19T01:55:59;3.78;;;0.77;;
69991;SDS011;57332;51.320;-0.580;2023-09-19T01:58:39;5.57;;;1.10;;
69991;SDS011;57332;51.320;-0.580;2023-09-19T02:01:09;8.27;;;0.82;;
69991;SDS011;57332;51.320;-0.580;2023-09-19T02:03:37;3.22;;;0.90;;
69991;SDS011;57332;51.320;-0.580;2023-09-19T02:06:05;4.68;;;0.98;;
69991;SDS011;57332;51.320;-0.580;2023-09-19T02:08:38;5.72;;;0.75;;
69991;SDS011;57332;51.320;-0.580;2023-09-19T02:11:06;4.97;;;0.90;;
69991;SDS011;57332;51.320;-0.580;2023-09-19T02:13:32;2.67;;;0.90;;
69991;SDS011;57332;51.320;-0.580;2023-09-19T02:16:00;8.50;;;0.98;;
69991;SDS011;57332;51.320;-0.580;2023-09-19T02:18:27;5.32;;;0.90;;
69991;SDS011;57332;51.320;-0.580;2023-09-19T02:20:55;4.30;;;0.90;;
69991;SDS011;57332;51.320;-0.580;2023-09-19T02:23:23;3.60;;;0.57;;
69991;SDS011;57332;51.320;-0.580;2023-09-19T02:25:59;2.63;;;0.73;;
69991;SDS011;57332;51.320;-0.580;2023-09-19T02:28:27;5.88;;;0.80;;
69991;SDS011;57332;51.320;-0.580;2023-09-19T02:30:57;5.30;;;1.00;;
69991;SDS011;57332;51.320;-0.580;2023-09-19T02:33:24;4.68;;;0.80;;
69991;SDS011;57332;51.320;-0.580;2023-09-19T02:35:54;5.25;;;0.73;;
69991;SDS011;57332;51.320;-0.580;2023-09-19T02:38:21;3.33;;;0.85;;
69991;SDS011;57332;51.320;-0.580;2023-09-19T02:40:51;4.10;;;0.82;;
69991;SDS011;57332;51.320;-0.580;2023-09-19T02:43:18;3.60;;;0.85;;
69991;SDS011;57332;51.320;-0.580;2023-09-19T02:45:49;1.83;;;0.45;;
69991;SDS011;57332;51.320;-0.580;2023-09-19T02:48:23;2.80;;;0.82;;
69991;SDS011;57332;51.320;-0.580;2023-09-19T02:50:52;5.68;;;0.80;;
69991;SDS011;57332;51.320;-0.580;2023-09-19T02:53:19;5.50;;;0.80;;
69991;SDS011;57332;51.320;-0.580;2023-09-19T02:55:46;3.45;;;0.77;;
69991;SDS011;57332;51.320;-0.580;2023-09-19T02:58:13;4.68;;;0.90;;
69991;SDS011;57332;51.320;-0.580;2023-09-19T03:00:41;3.50;;;1.08;;
69991;SDS011;57332;51.320;-0.580;2023-09-19T03:03:16;6.25;;;0.90;;
69991;SDS011;57332;51.320;-0.580;2023-09-19T03:05:44;3.13;;;1.10;;
69991;SDS011;57332;51.320;-0.580;2023-09-19T03:08:14;6.50;;;0.93;;
69991;SDS011;57332;51.320;-0.580;2023-09-19T03:10:41;4.28;;;0.95;;
69991;SDS011;57332;51.320;-0.580;2023-09-19T03:13:08;5.28;;;0.85;;
69991;SDS011;57332;51.320;-0.580;2023-09-19T03:15:36;5.47;;;0.85;;
69991;SDS011;57332;51.320;-0.580;2023-09-19T03:18:05;4.93;;;0.90;;
69991;SDS011;57332;51.320;-0.580;2023-09-19T03:20:33;1.60;;;0.57;;
69991;SDS011;57332;51.320;-0.580;2023-09-19T03:22:59;4.82;;;0.70;;
69991;SDS011;57332;51.320;-0.580;2023-09-19T03:25:26;7.93;;;0.90;;
69991;SDS011;57332;51.320;-0.580;2023-09-19T03:27:56;2.60;;;0.80;;
69991;SDS011;57332;51.320;-0.580;2023-09-19T03:30:24;2.88;;;0.70;;
69991;SDS011;57332;51.320;-0.580;2023-09-19T03:32:51;4.43;;;0.85;;
69991;SDS011;57332;51.320;-0.580;2023-09-19T03:35:18;3.75;;;0.63;;
69991;SDS011;57332;51.320;-0.580;2023-09-19T03:37:46;1.95;;;0.47;;
69991;SDS011;57332;51.320;-0.580;2023-09-19T03:40:13;2.95;;;0.85;;
69991;SDS011;57332;51.320;-0.580;2023-09-19T03:42:40;4.97;;;1.38;;
69991;SDS011;57332;51.320;-0.580;2023-09-19T03:45:08;4.45;;;0.80;;
69991;SDS011;57332;51.320;-0.580;2023-09-19T03:47:39;6.78;;;1.00;;
69991;SDS011;57332;51.320;-0.580;2023-09-19T03:50:07;3.33;;;0.90;;
69991;SDS011;57332;51.320;-0.580;2023-09-19T03:52:38;6.50;;;1.00;;
69991;SDS011;57332;51.320;-0.580;2023-09-19T03:55:05;4.32;;;0.70;;
69991;SDS011;57332;51.320;-0.580;2023-09-19T03:57:32;6.05;;;0.90;;
69991;SDS011;57332;51.320;-0.580;2023-09-19T03:59:59;3.40;;;0.88;;
69991;SDS011;57332;51.320;-0.580;2023-09-19T04:02:26;3.35;;;0.70;;
69991;SDS011;57332;51.320;-0.580;2023-09-19T04:04:59;3.65;;;0.68;;
69991;SDS011;57332;51.320;-0.580;2023-09-19T04:07:26;2.22;;;0.63;;
69991;SDS011;57332;51.320;-0.580;2023-09-19T04:09:55;1.77;;;0.75;;
69991;SDS011;57332;51.320;-0.580;2023-09-19T04:12:22;4.80;;;1.10;;
69991;SDS011;57332;51.320;-0.580;2023-09-19T04:14:49;3.08;;;0.68;;
69991;SDS011;57332;51.320;-0.580;2023-09-19T04:17:16;2.85;;;0.70;;
69991;SDS011;57332;51.320;-0.580;2023-09-19T04:19:45;6.93;;;0.93;;
69991;SDS011;57332;51.320;-0.580;2023-09-19T04:22:12;7.15;;;0.65;;
69991;SDS011;57332;51.320;-0.580;2023-09-19T04:24:39;3.75;;;0.70;;
69991;SDS011;57332;51.320;-0.580;2023-09-19T04:27:06;5.22;;;0.75;;
69991;SDS011;57332;51.320;-0.580;2023-09-19T04:29:34;4.47;;;0.63;;
69991;SDS011;57332;51.320;-0.580;2023-09-19T04:32:01;4.38;;;0.85;;
69991;SDS011;57332;51.320;-0.580;2023-09-19T04:34:33;1.92;;;0.57;;
69991;SDS011;57332;51.320;-0.580;2023-09-19T04:37:01;5.80;;;0.57;;
69991;SDS011;57332;51.320;-0.580;2023-09-19T04:39:28;8.45;;;0.90;;
69991;SDS011;57332;51.320;-0.580;2023-09-19T04:41:55;4.43;;;0.60;;
69991;SDS011;57332;51.320;-0.580;2023-09-19T04:44:22;4.50;;;0.95;;
69991;SDS011;57332;51.320;-0.580;2023-09-19T04:46:49;5.15;;;0.50;;
69991;SDS011;57332;51.320;-0.580;2023-09-19T04:49:16;7.15;;;0.80;;
69991;SDS011;57332;51.320;-0.580;2023-09-19T04:51:43;1.80;;;0.60;;
69991;SDS011;57332;51.320;-0.580;2023-09-19T04:54:09;4.95;;;0.80;;
69991;SDS011;57332;51.320;-0.580;2023-09-19T04:56:37;3.88;;;0.85;;
69991;SDS011;57332;51.320;-0.580;2023-09-19T04:59:07;5.38;;;0.60;;
69991;SDS011;57332;51.320;-0.580;2023-09-19T05:01:34;3.95;;;0.82;;
69991;SDS011;57332;51.320;-0.580;2023-09-19T05:04:01;1.60;;;0.60;;
69991;SDS011;57332;51.320;-0.580;2023-09-19T05:06:28;3.65;;;0.70;;
69991;SDS011;57332;51.320;-0.580;2023-09-19T05:08:55;5.90;;;0.68;;
69991;SDS011;57332;51.320;-0.580;2023-09-19T05:11:21;4.30;;;0.80;;
69991;SDS011;57332;51.320;-0.580;2023-09-19T05:13:49;4.93;;;0.80;;
69991;SDS011;57332;51.320;-0.580;2023-09-19T05:16:20;2.15;;;0.80;;
69991;SDS011;57332;51.320;-0.580;2023-09-19T05:18:47;4.97;;;0.70;;
69991;SDS011;57332;51.320;-0.580;2023-09-19T05:21:14;4.18;;;0.73;;
69991;SDS011;57332;51.320;-0.580;2023-09-19T05:23:40;5.95;;;0.60;;
69991;SDS011;57332;51.320;-0.580;2023-09-19T05:26:08;3.17;;;0.82;;
69991;SDS011;57332;51.320;-0.580;2023-09-19T05:28:37;4.28;;;0.70;;
69991;SDS011;57332;51.320;-0.580;2023-09-19T05:31:04;3.13;;;0.90;;
69991;SDS011;57332;51.320;-0.580;2023-09-19T05:33:31;4.57;;;1.00;;
69991;SDS011;57332;51.320;-0.580;2023-09-19T05:36:00;4.20;;;1.10;;
69991;SDS011;57332;51.320;-0.580;2023-09-19T05:38:27;2.70;;;0.90;;
69991;SDS011;57332;51.320;-0.580;2023-09-19T05:40:54;7.00;;;0.90;;
69991;SDS011;57332;51.320;-0.580;2023-09-19T05:43:21;6.28;;;1.15;;
69991;SDS011;57332;51.320;-0.580;2023-09-19T05:45:48;6.05;;;0.82;;
69991;SDS011;57332;51.320;-0.580;2023-09-19T05:48:18;3.15;;;0.60;;
69991;SDS011;57332;51.320;-0.580;2023-09-19T05:50:48;4.57;;;1.15;;
69991;SDS011;57332;51.320;-0.580;2023-09-19T05:53:15;2.80;;;0.57;;
69991;SDS011;57332;51.320;-0.580;2023-09-19T05:55:42;2.63;;;0.73;;
69991;SDS011;57332;51.320;-0.580;2023-09-19T05:58:10;3.15;;;0.88;;
69991;SDS011;57332;51.320;-0.580;2023-09-19T06:00:37;3.58;;;0.70;;
69991;SDS011;57332;51.320;-0.580;2023-09-19T06:03:06;3.83;;;0.60;;
69991;SDS011;57332;51.320;-0.580;2023-09-19T06:05:33;0.65;;;0.40;;
69991;SDS011;57332;51.320;-0.580;2023-09-19T06:08:00;3.95;;;0.73;;
69991;SDS011;57332;51.320;-0.580;2023-09-19T06:10:27;3.88;;;0.73;;
69991;SDS011;57332;51.320;-0.580;2023-09-19T06:12:55;3.28;;;0.70;;
69991;SDS011;57332;51.320;-0.580;2023-09-19T06:15:22;5.43;;;0.82;;
69991;SDS011;57332;51.320;-0.580;2023-09-19T06:17:54;3.60;;;0.70;;
69991;SDS011;57332;51.320;-0.580;2023-09-19T06:20:25;2.60;;;0.73;;
69991;SDS011;57332;51.320;-0.580;2023-09-19T06:22:53;1.52;;;0.43;;
69991;SDS011;57332;51.320;-0.580;2023-09-19T06:25:20;2.95;;;0.90;;
69991;SDS011;57332;51.320;-0.580;2023-09-19T06:27:48;2.08;;;0.70;;
69991;SDS011;57332;51.320;-0.580;2023-09-19T06:30:15;1.63;;;0.57;;
69991;SDS011;57332;51.320;-0.580;2023-09-19T06:32:43;1.48;;;0.40;;
69991;SDS011;57332;51.320;-0.580;2023-09-19T06:35:14;4.43;;;0.90;;
69991;SDS011;57332;51.320;-0.580;2023-09-19T06:37:42;2.20;;;0.50;;
69991;SDS011;57332;51.320;-0.580;2023-09-19T06:40:14;4.28;;;0.82;;
69991;SDS011;57332;51.320;-0.580;2023-09-19T06:42:41;3.28;;;0.70;;
69991;SDS011;57332;51.320;-0.580;2023-09-19T06:45:09;2.85;;;0.70;;
69991;SDS011;57332;51.320;-0.580;2023-09-19T06:47:38;4.57;;;0.60;;
69991;SDS011;57332;51.320;-0.580;2023-09-19T06:50:05;4.40;;;0.68;;
69991;SDS011;57332;51.320;-0.580;2023-09-19T06:52:33;2.80;;;0.52;;
69991;SDS011;57332;51.320;-0.580;2023-09-19T06:55:00;3.17;;;0.80;;
69991;SDS011;57332;51.320;-0.580;2023-09-19T06:57:29;4.95;;;0.90;;
69991;SDS011;57332;51.320;-0.580;2023-09-19T06:59:57;4.95;;;0.70;;
69991;SDS011;57332;51.320;-0.580;2023-09-19T07:02:24;5.70;;;0.85;;
69991;SDS011;57332;51.320;-0.580;2023-09-19T07:04:51;3.08;;;0.93;;
69991;SDS011;57332;51.320;-0.580;2023-09-19T07:07:18;4.75;;;1.17;;
69991;SDS011;57332;51.320;-0.580;2023-09-19T07:09:45;3.22;;;0.80;;
69991;SDS011;57332;51.320;-0.580;2023-09-19T07:12:12;4.53;;;1.10;;
69991;SDS011;57332;51.320;-0.580;2023-09-19T07:14:39;2.42;;;0.80;;
69991;SDS011;57332;51.320;-0.580;2023-09-19T07:17:06;4.53;;;0.95;;
69991;SDS011;57332;51.320;-0.580;2023-09-19T07:19:34;6.65;;;1.73;;
69991;SDS011;57332;51.320;-0.580;2023-09-19T07:22:01;5.13;;;1.25;;
69991;SDS011;57332;51.320;-0.580;2023-09-19T07:24:29;7.43;;;1.52;;
69991;SDS011;57332;51.320;-0.580;2023-09-19T07:26:56;8.20;;;1.30;;
69991;SDS011;57332;51.320;-0.580;2023-09-19T07:29:23;4.28;;;1.00;;
69991;SDS011;57332;51.320;-0.580;2023-09-19T07:31:49;6.38;;;1.52;;
69991;SDS011;57332;51.320;-0.580;2023-09-19T07:34:17;6.32;;;1.45;;
69991;SDS011;57332;51.320;-0.580;2023-09-19T07:36:44;6.35;;;1.45;;
69991;SDS011;57332;51.320;-0.580;2023-09-19T07:39:13;6.38;;;1.27;;
69991;SDS011;57332;51.320;-0.580;2023-09-19T07:41:49;6.97;;;1.95;;
69991;SDS011;57332;51.320;-0.580;2023-09-19T07:44:16;6.20;;;1.20;;
69991;SDS011;57332;51.320;-0.580;2023-09-19T07:46:44;9.75;;;1.55;;
69991;SDS011;57332;51.320;-0.580;2023-09-19T07:49:11;5.55;;;1.40;;
69991;SDS011;57332;51.320;-0.580;2023-09-19T07:51:38;4.70;;;1.67;;
69991;SDS011;57332;51.320;-0.580;2023-09-19T07:54:05;5.15;;;1.33;;
69991;SDS011;57332;51.320;-0.580;2023-09-19T07:56:32;7.95;;;2.10;;
69991;SDS011;57332;51.320;-0.580;2023-09-19T07:59:00;7.25;;;1.48;;
69991;SDS011;57332;51.320;-0.580;2023-09-19T08:01:27;6.07;;;1.83;;
69991;SDS011;57332;51.320;-0.580;2023-09-19T08:03:54;5.32;;;1.50;;
69991;SDS011;57332;51.320;-0.580;2023-09-19T08:06:21;6.30;;;1.60;;
69991;SDS011;57332;51.320;-0.580;2023-09-19T08:08:50;4.10;;;1.05;;
69991;SDS011;57332;51.320;-0.580;2023-09-19T08:11:17;5.72;;;1.75;;
69991;SDS011;57332;51.320;-0.580;2023-09-19T08:13:48;5.00;;;1.02;;
69991;SDS011;57332;51.320;-0.580;2023-09-19T08:16:16;4.95;;;1.20;;
69991;SDS011;57332;51.320;-0.580;2023-09-19T08:18:48;7.13;;;1.70;;
69991;SDS011;57332;51.320;-0.580;2023-09-19T08:21:15;6.00;;;1.38;;
69991;SDS011;57332;51.320;-0.580;2023-09-19T08:23:43;7.68;;;1.35;;
69991;SDS011;57332;51.320;-0.580;2023-09-19T08:26:11;6.05;;;1.40;;
69991;SDS011;57332;51.320;-0.580;2023-09-19T08:28:38;4.80;;;1.20;;
69991;SDS011;57332;51.320;-0.580;2023-09-19T08:31:07;4.78;;;1.10;;
69991;SDS011;57332;51.320;-0.580;2023-09-19T08:33:36;4.95;;;1.33;;
69991;SDS011;57332;51.320;-0.580;2023-09-19T08:36:04;6.45;;;1.60;;
69991;SDS011;57332;51.320;-0.580;2023-09-19T08:38:31;11.05;;;2.00;;
69991;SDS011;57332;51.320;-0.580;2023-09-19T08:41:00;10.40;;;1.88;;
69991;SDS011;57332;51.320;-0.580;2023-09-19T08:43:27;8.55;;;1.83;;
69991;SDS011;57332;51.320;-0.580;2023-09-19T08:45:57;10.38;;;2.13;;
69991;SDS011;57332;51.320;-0.580;2023-09-19T08:48:28;6.53;;;1.85;;
69991;SDS011;57332;51.320;-0.580;2023-09-19T08:51:33;7.68;;;1.63;;
69991;SDS011;57332;51.320;-0.580;2023-09-19T08:56:16;8.80;;;1.60;;
69991;SDS011;57332;51.320;-0.580;2023-09-19T08:58:54;8.52;;;1.83;;
69991;SDS011;57332;51.320;-0.580;2023-09-19T09:01:23;5.10;;;1.42;;
69991;SDS011;57332;51.320;-0.580;2023-09-19T09:03:54;10.95;;;1.85;;
69991;SDS011;57332;51.320;-0.580;2023-09-19T09:06:22;6.07;;;1.58;;
69991;SDS011;57332;51.320;-0.580;2023-09-19T09:08:50;7.43;;;1.73;;
69991;SDS011;57332;51.320;-0.580;2023-09-19T09:11:17;8.95;;;1.70;;
69991;SDS011;57332;51.320;-0.580;2023-09-19T09:13:44;8.98;;;2.10;;
69991;SDS011;57332;51.320;-0.580;2023-09-19T09:16:12;13.82;;;1.83;;
69991;SDS011;57332;51.320;-0.580;2023-09-19T09:18:40;4.95;;;1.75;;
69991;SDS011;57332;51.320;-0.580;2023-09-19T09:21:07;6.80;;;1.77;;
69991;SDS011;57332;51.320;-0.580;2023-09-19T09:23:37;6.68;;;1.58;;
69991;SDS011;57332;51.320;-0.580;2023-09-19T09:26:05;8.50;;;2.08;;
69991;SDS011;57332;51.320;-0.580;2023-09-19T09:28:34;5.82;;;1.40;;
69991;SDS011;57332;51.320;-0.580;2023-09-19T09:31:02;5.15;;;1.50;;
69991;SDS011;57332;51.320;-0.580;2023-09-19T09:33:39;8.18;;;1.75;;
69991;SDS011;57332;51.320;-0.580;2023-09-19T09:36:08;8.77;;;1.77;;
69991;SDS011;57332;51.320;-0.580;2023-09-19T09:38:43;4.35;;;1.58;;
69991;SDS011;57332;51.320;-0.580;2023-09-19T09:41:10;7.55;;;1.50;;
69991;SDS011;57332;51.320;-0.580;2023-09-19T09:43:42;7.88;;;1.63;;
69991;SDS011;57332;51.320;-0.580;2023-09-19T09:46:15;6.85;;;1.75;;
69991;SDS011;57332;51.320;-0.580;2023-09-19T09:51:41;6.47;;;1.75;;
69991;SDS011;57332;51.320;-0.580;2023-09-19T09:54:12;5.25;;;1.55;;
69991;SDS011;57332;51.320;-0.580;2023-09-19T10:02:17;9.13;;;1.83;;
69991;SDS011;57332;51.320;-0.580;2023-09-19T10:04:52;10.55;;;2.10;;
69991;SDS011;57332;51.320;-0.580;2023-09-19T10:07:30;4.38;;;1.58;;
69991;SDS011;57332;51.320;-0.580;2023-09-19T10:10:02;11.23;;;1.80;;
69991;SDS011;57332;51.320;-0.580;2023-09-19T10:12:44;9.80;;;1.85;;
69991;SDS011;57332;51.320;-0.580;2023-09-19T10:15:16;7.05;;;1.70;;
69991;SDS011;57332;51.320;-0.580;2023-09-19T10:17:44;8.68;;;2.25;;
69991;SDS011;57332;51.320;-0.580;2023-09-19T10:20:13;5.55;;;1.75;;
69991;SDS011;57332;51.320;-0.580;2023-09-19T10:23:04;7.47;;;2.10;;
69991;SDS011;57332;51.320;-0.580;2023-09-19T10:25:37;8.25;;;1.50;;
69991;SDS011;57332;51.320;-0.580;2023-09-19T10:28:05;8.63;;;1.90;;
69991;SDS011;57332;51.320;-0.580;2023-09-19T10:30:45;6.25;;;1.75;;
69991;SDS011;57332;51.320;-0.580;2023-09-19T10:33:14;4.95;;;1.35;;
69991;SDS011;57332;51.320;-0.580;2023-09-19T10:35:42;5.03;;;1.58;;
69991;SDS011;57332;51.320;-0.580;2023-09-19T10:38:10;5.38;;;1.65;;
69991;SDS011;57332;51.320;-0.580;2023-09-19T10:40:38;5.47;;;1.90;;
69991;SDS011;57332;51.320;-0.580;2023-09-19T10:43:15;11.13;;;1.90;;
69991;SDS011;57332;51.320;-0.580;2023-09-19T10:45:45;7.28;;;1.70;;
69991;SDS011;57332;51.320;-0.580;2023-09-19T10:48:16;5.00;;;1.50;;
69991;SDS011;57332;51.320;-0.580;2023-09-19T10:53:55;6.28;;;1.63;;
69991;SDS011;57332;51.320;-0.580;2023-09-19T10:56:31;6.63;;;1.80;;
69991;SDS011;57332;51.320;-0.580;2023-09-19T10:59:12;6.63;;;1.65;;
69991;SDS011;57332;51.320;-0.580;2023-09-19T11:01:43;8.20;;;1.73;;
69991;SDS011;57332;51.320;-0.580;2023-09-19T11:04:33;8.32;;;1.65;;
69991;SDS011;57332;51.320;-0.580;2023-09-19T11:07:09;6.47;;;1.45;;
69991;SDS011;57332;51.320;-0.580;2023-09-19T11:09:57;5.55;;;1.85;;
69991;SDS011;57332;51.320;-0.580;2023-09-19T11:14:58;5.30;;;1.77;;
69991;SDS011;57332;51.320;-0.580;2023-09-19T11:17:34;9.25;;;1.92;;
69991;SDS011;57332;51.320;-0.580;2023-09-19T11:23:23;6.53;;;1.50;;
69991;SDS011;57332;51.320;-0.580;2023-09-19T11:30:49;5.57;;;2.00;;
69991;SDS011;57332;51.320;-0.580;2023-09-19T11:35:59;6.90;;;1.45;;
69991;SDS011;57332;51.320;-0.580;2023-09-19T11:46:32;5.10;;;1.15;;
69991;SDS011;57332;51.320;-0.580;2023-09-19T11:49:06;5.90;;;1.83;;
69991;SDS011;57332;51.320;-0.580;2023-09-19T11:51:43;9.23;;;1.92;;
69991;SDS011;57332;51.320;-0.580;2023-09-19T11:54:11;5.82;;;1.35;;
69991;SDS011;57332;51.320;-0.580;2023-09-19T11:56:45;5.57;;;1.52;;
69991;SDS011;57332;51.320;-0.580;2023-09-19T11:59:13;3.03;;;1.02;;
69991;SDS011;57332;51.320;-0.580;2023-09-19T12:01:51;3.55;;;1.50;;
69991;SDS011;57332;51.320;-0.580;2023-09-19T12:04:34;3.92;;;1.38;;
69991;SDS011;57332;51.320;-0.580;2023-09-19T12:09:32;6.80;;;1.70;;
69991;SDS011;57332;51.320;-0.580;2023-09-19T12:11:59;4.60;;;1.52;;
69991;SDS011;57332;51.320;-0.580;2023-09-19T12:14:26;4.97;;;1.35;;
69991;SDS011;57332;51.320;-0.580;2023-09-19T12:16:57;6.28;;;1.60;;
69991;SDS011;57332;51.320;-0.580;2023-09-19T12:21:55;7.07;;;1.50;;
69991;SDS011;57332;51.320;-0.580;2023-09-19T12:24:26;4.15;;;1.38;;
69991;SDS011;57332;51.320;-0.580;2023-09-19T12:26:53;5.47;;;1.67;;
69991;SDS011;57332;51.320;-0.580;2023-09-19T12:29:20;4.05;;;1.30;;
69991;SDS011;57332;51.320;-0.580;2023-09-19T12:31:54;7.15;;;1.40;;
69991;SDS011;57332;51.320;-0.580;2023-09-19T12:34:31;7.07;;;1.50;;
69991;SDS011;57332;51.320;-0.580;2023-09-19T12:37:14;5.00;;;1.38;;
69991;SDS011;57332;51.320;-0.580;2023-09-19T12:39:49;4.30;;;1.70;;
69991;SDS011;57332;51.320;-0.580;2023-09-19T12:42:19;5.43;;;1.60;;
69991;SDS011;57332;51.320;-0.580;2023-09-19T12:44:46;5.07;;;1.25;;
69991;SDS011;57332;51.320;-0.580;2023-09-19T12:47:15;6.85;;;1.20;;
69991;SDS011;57332;51.320;-0.580;2023-09-19T12:50:25;8.20;;;1.90;;
69991;SDS011;57332;51.320;-0.580;2023-09-19T12:52:52;7.43;;;2.35;;
69991;SDS011;57332;51.320;-0.580;2023-09-19T12:55:27;4.88;;;1.42;;
69991;SDS011;57332;51.320;-0.580;2023-09-19T13:00:21;4.32;;;1.40;;
69991;SDS011;57332;51.320;-0.580;2023-09-19T13:03:36;4.53;;;1.52;;
69991;SDS011;57332;51.320;-0.580;2023-09-19T13:05:47;4.35;;;1.65;;
69991;SDS011;57332;51.320;-0.580;2023-09-19T13:08:18;6.15;;;1.48;;
69991;SDS011;57332;51.320;-0.580;2023-09-19T13:13:22;5.18;;;1.40;;
69991;SDS011;57332;51.320;-0.580;2023-09-19T13:15:52;4.13;;;1.30;;
69991;SDS011;57332;51.320;-0.580;2023-09-19T13:18:19;3.90;;;1.15;;
69991;SDS011;57332;51.320;-0.580;2023-09-19T13:23:37;6.35;;;1.52;;
69991;SDS011;57332;51.320;-0.580;2023-09-19T13:26:05;5.03;;;1.38;;
69991;SDS011;57332;51.320;-0.580;2023-09-19T13:28:33;4.45;;;1.08;;
69991;SDS011;57332;51.320;-0.580;2023-09-19T13:31:00;6.45;;;1.25;;
69991;SDS011;57332;51.320;-0.580;2023-09-19T13:33:28;6.45;;;1.35;;
69991;SDS011;57332;51.320;-0.580;2023-09-19T13:35:57;3.90;;;1.10;;
69991;SDS011;57332;51.320;-0.580;2023-09-19T13:38:24;3.72;;;1.25;;
69991;SDS011;57332;51.320;-0.580;2023-09-19T13:40:51;8.90;;;1.27;;
69991;SDS011;57332;51.320;-0.580;2023-09-19T13:43:19;4.63;;;1.33;;
69991;SDS011;57332;51.320;-0.580;2023-09-19T13:45:48;4.10;;;1.40;;
69991;SDS011;57332;51.320;-0.580;2023-09-19T13:48:16;7.10;;;1.85;;
69991;SDS011;57332;51.320;-0.580;2023-09-19T13:50:47;4.03;;;1.33;;
69991;SDS011;57332;51.320;-0.580;2023-09-19T13:53:14;6.13;;;1.73;;
69991;SDS011;57332;51.320;-0.580;2023-09-19T13:55:41;3.45;;;1.13;;
69991;SDS011;57332;51.320;-0.580;2023-09-19T13:58:08;8.50;;;1.48;;
69991;SDS011;57332;51.320;-0.580;2023-09-19T14:00:37;7.63;;;1.33;;
69991;SDS011;57332;51.320;-0.580;2023-09-19T14:03:05;5.28;;;1.20;;
69991;SDS011;57332;51.320;-0.580;2023-09-19T14:05:32;4.95;;;1.17;;
69991;SDS011;57332;51.320;-0.580;2023-09-19T14:07:59;3.90;;;1.17;;
69991;SDS011;57332;51.320;-0.580;2023-09-19T14:10:26;4.82;;;1.20;;
69991;SDS011;57332;51.320;-0.580;2023-09-19T14:12:54;5.70;;;1.30;;
69991;SDS011;57332;51.320;-0.580;2023-09-19T14:15:21;3.90;;;1.30;;
69991;SDS011;57332;51.320;-0.580;2023-09-19T14:17:59;2.90;;;1.27;;
69991;SDS011;57332;51.320;-0.580;2023-09-19T14:20:27;3.05;;;1.35;;
69991;SDS011;57332;51.320;-0.580;2023-09-19T14:22:54;5.00;;;1.10;;
69991;SDS011;57332;51.320;-0.580;2023-09-19T14:25:21;3.10;;;1.25;;
69991;SDS011;57332;51.320;-0.580;2023-09-19T14:27:50;3.25;;;1.02;;
69991;SDS011;57332;51.320;-0.580;2023-09-19T14:30:17;4.75;;;1.30;;
69991;SDS011;57332;51.320;-0.580;2023-09-19T14:32:44;3.90;;;0.88;;
69991;SDS011;57332;51.320;-0.580;2023-09-19T14:35:11;4.05;;;1.17;;
69991;SDS011;57332;51.320;-0.580;2023-09-19T14:37:37;5.15;;;1.17;;
69991;SDS011;57332;51.320;-0.580;2023-09-19T14:40:06;4.53;;;1.20;;
69991;SDS011;57332;51.320;-0.580;2023-09-19T14:42:38;2.00;;;1.05;;
69991;SDS011;57332;51.320;-0.580;2023-09-19T14:45:05;3.70;;;1.10;;
69991;SDS011;57332;51.320;-0.580;2023-09-19T14:47:33;2.45;;;1.20;;
69991;SDS011;57332;51.320;-0.580;2023-09-19T14:50:01;3.95;;;1.10;;
69991;SDS011;57332;51.320;-0.580;2023-09-19T14:52:33;3.13;;;0.90;;
69991;SDS011;57332;51.320;-0.580;2023-09-19T14:55:00;3.03;;;1.10;;
69991;SDS011;57332;51.320;-0.580;2023-09-19T14:57:28;3.50;;;1.20;;
69991;SDS011;57332;51.320;-0.580;2023-09-19T14:59:56;2.97;;;1.00;;
69991;SDS011;57332;51.320;-0.580;2023-09-19T15:02:23;3.58;;;1.25;;
69991;SDS011;57332;51.320;-0.580;2023-09-19T15:04:51;2.97;;;1.08;;
69991;SDS011;57332;51.320;-0.580;2023-09-19T15:07:18;4.18;;;1.30;;
69991;SDS011;57332;51.320;-0.580;2023-09-19T15:09:45;3.33;;;0.90;;
69991;SDS011;57332;51.320;-0.580;2023-09-19T15:12:12;4.65;;;0.98;;
69991;SDS011;57332;51.320;-0.580;2023-09-19T15:14:41;8.10;;;1.55;;
69991;SDS011;57332;51.320;-0.580;2023-09-19T15:17:10;3.85;;;0.90;;
69991;SDS011;57332;51.320;-0.580;2023-09-19T15:19:38;3.17;;;1.10;;
69991;SDS011;57332;51.320;-0.580;2023-09-19T15:22:05;2.97;;;1.23;;
69991;SDS011;57332;51.320;-0.580;2023-09-19T15:24:32;5.10;;;1.27;;
69991;SDS011;57332;51.320;-0.580;2023-09-19T15:26:59;3.85;;;0.90;;
69991;SDS011;57332;51.320;-0.580;2023-09-19T15:29:26;4.45;;;0.95;;
69991;SDS011;57332;51.320;-0.580;2023-09-19T15:31:54;3.40;;;1.02;;
69991;SDS011;57332;51.320;-0.580;2023-09-19T15:34:21;5.13;;;1.10;;
69991;SDS011;57332;51.320;-0.580;2023-09-19T15:36:48;3.85;;;1.00;;
69991;SDS011;57332;51.320;-0.580;2023-09-19T15:39:16;6.28;;;1.10;;
69991;SDS011;57332;51.320;-0.580;2023-09-19T15:41:44;5.60;;;1.27;;
69991;SDS011;57332;51.320;-0.580;2023-09-19T15:44:12;3.72;;;1.30;;
69991;SDS011;57332;51.320;-0.580;2023-09-19T15:46:40;8.52;;;1.30;;
69991;SDS011;57332;51.320;-0.580;2023-09-19T15:49:08;4.03;;;1.17;;